createdAt,value
2023-02-05T00:02:18.216Z,102193.00
2023-02-05T00:04:45.107Z,102184.00
2023-02-05T00:07:11.957Z,102187.00
2023-02-05T00:09:40.953Z,102175.00
2023-02-05T00:12:08.141Z,102191.00
2023-02-05T00:14:34.960Z,102194.00
2023-02-05T00:17:01.785Z,102195.00
2023-02-05T00:19:31.713Z,102185.00
2023-02-05T00:21:58.630Z,102182.00
2023-02-05T00:24:25.580Z,102150.00
2023-02-05T00:26:52.464Z,102185.00
2023-02-05T00:29:19.395Z,102172.00
2023-02-05T00:31:49.409Z,102192.00
2023-02-05T00:34:17.229Z,102187.00
2023-02-05T00:36:44.114Z,102183.00
2023-02-05T00:39:12.221Z,102192.00
2023-02-05T00:41:39.089Z,102190.00
2023-02-05T00:44:06.950Z,102191.00
2023-02-05T00:46:33.888Z,102192.00
2023-02-05T00:49:00.764Z,102194.00
2023-02-05T00:51:27.864Z,102184.00
2023-02-05T00:53:54.713Z,102191.00
2023-02-05T00:56:21.829Z,102196.00
2023-02-05T00:58:50.011Z,102191.00
2023-02-05T01:01:17.415Z,102187.00
2023-02-05T01:03:44.506Z,102189.00
2023-02-05T01:06:11.330Z,102177.00
2023-02-05T01:08:38.157Z,102186.00
2023-02-05T01:11:08.678Z,102186.00
2023-02-05T01:13:35.636Z,102157.00
2023-02-05T01:16:02.616Z,102198.00
2023-02-05T01:18:29.532Z,102181.00
2023-02-05T01:20:56.426Z,102183.00
2023-02-05T01:23:23.277Z,102184.00
2023-02-05T01:25:50.167Z,102179.00
2023-02-05T01:28:17.053Z,102165.00
2023-02-05T01:30:51.458Z,102162.00
2023-02-05T01:33:19.281Z,102157.00
2023-02-05T01:35:46.511Z,102187.00
2023-02-05T01:38:17.000Z,102172.00
2023-02-05T01:40:43.923Z,102176.00
2023-02-05T01:43:14.128Z,102167.00
2023-02-05T01:46:03.836Z,102177.00
2023-02-05T01:48:42.251Z,102169.00
2023-02-05T01:51:13.723Z,102173.00
2023-02-05T01:53:42.622Z,102175.00
2023-02-05T01:56:22.476Z,102174.00
2023-02-05T01:59:03.515Z,102169.00
2023-02-05T02:01:32.167Z,102170.00
2023-02-05T02:04:04.761Z,102183.00
2023-02-05T02:06:35.347Z,102162.00
2023-02-05T02:09:06.326Z,102173.00
2023-02-05T02:11:41.250Z,102176.00
2023-02-05T02:14:11.923Z,102166.00
2023-02-05T02:16:40.754Z,102176.00
2023-02-05T02:19:34.684Z,102174.00
2023-02-05T02:22:30.531Z,102170.00
2023-02-05T02:25:40.577Z,102167.00
2023-02-05T02:28:41.099Z,102167.00
2023-02-05T02:31:31.321Z,102166.00
2023-02-05T02:34:32.738Z,102163.00
2023-02-05T02:37:17.797Z,102171.00
2023-02-05T02:40:04.112Z,102169.00
2023-02-05T02:42:57.690Z,102167.00
2023-02-05T02:45:30.969Z,102160.00
2023-02-05T02:48:01.098Z,102170.00
2023-02-05T02:50:34.816Z,102173.00
2023-02-05T02:53:24.105Z,102168.00
2023-02-05T02:55:55.470Z,102169.00
2023-02-05T02:58:36.361Z,102167.00
2023-02-05T03:01:06.900Z,102163.00
2023-02-05T03:03:41.062Z,102154.00
2023-02-05T03:06:11.610Z,102116.00
2023-02-05T03:09:13.270Z,102146.00
2023-02-05T03:11:40.417Z,102156.00
2023-02-05T03:14:07.362Z,102160.00
2023-02-05T03:16:34.295Z,102155.00
2023-02-05T03:19:02.918Z,102168.00
2023-02-05T03:21:41.304Z,102169.00
2023-02-05T03:24:09.167Z,102172.00
2023-02-05T03:26:38.270Z,102171.00
2023-02-05T03:29:17.269Z,102157.00
2023-02-05T03:32:11.897Z,102164.00
2023-02-05T03:35:17.368Z,102170.00
2023-02-05T03:38:32.205Z,102167.00
2023-02-05T03:41:03.163Z,102166.00
2023-02-05T03:44:15.994Z,102166.00
2023-02-05T03:47:03.189Z,102160.00
2023-02-05T03:49:57.857Z,102163.00
2023-02-05T03:52:41.056Z,102170.00
2023-02-05T03:55:15.466Z,102163.00
2023-02-05T03:58:12.893Z,102159.00
2023-02-05T04:00:41.336Z,102169.00
2023-02-05T04:03:08.368Z,102170.00
2023-02-05T04:05:35.682Z,102165.00
2023-02-05T04:08:03.048Z,102165.00
2023-02-05T04:10:29.990Z,102172.00
2023-02-05T04:12:56.824Z,102178.00
2023-02-05T04:15:23.662Z,102173.00
2023-02-05T04:17:50.572Z,102161.00
2023-02-05T04:20:17.708Z,102168.00
2023-02-05T04:22:44.600Z,102161.00
2023-02-05T04:25:11.479Z,102149.00
2023-02-05T04:27:38.302Z,102157.00
2023-02-05T04:30:06.757Z,102161.00
2023-02-05T04:32:33.590Z,102161.00
2023-02-05T04:35:00.454Z,102168.00
2023-02-05T04:37:27.387Z,102154.00
2023-02-05T04:39:54.232Z,102150.00
2023-02-05T04:42:21.128Z,102165.00
2023-02-05T04:44:48.033Z,102158.00
2023-02-05T04:47:14.858Z,102172.00
2023-02-05T04:49:41.738Z,102170.00
2023-02-05T04:52:08.698Z,102174.00
2023-02-05T04:54:37.816Z,102180.00
2023-02-05T04:57:04.826Z,102179.00
2023-02-05T05:13:01.809Z,102197.00
2023-02-05T05:15:28.969Z,102193.00
2023-02-05T05:17:56.000Z,102184.00
2023-02-05T05:20:23.127Z,102182.00
2023-02-05T05:22:50.480Z,102172.00
2023-02-05T05:25:18.141Z,102166.00
2023-02-05T05:27:45.357Z,102153.00
2023-02-05T05:30:13.313Z,102149.00
2023-02-05T05:32:40.503Z,102150.00
2023-02-05T05:35:07.996Z,102158.00
2023-02-05T05:37:35.159Z,102118.00
2023-02-05T05:40:21.120Z,102139.00
2023-02-05T05:43:06.983Z,102118.00
2023-02-05T05:45:34.450Z,102151.00
2023-02-05T05:48:02.339Z,102152.00
2023-02-05T05:50:29.509Z,102143.00
2023-02-05T05:52:56.673Z,102165.00
2023-02-05T05:55:23.928Z,102172.00
2023-02-05T05:57:51.174Z,102183.00
2023-02-05T06:00:19.009Z,102176.00
2023-02-05T06:02:46.214Z,102177.00
2023-02-05T06:05:13.226Z,102167.00
2023-02-05T06:07:40.410Z,102185.00
2023-02-05T06:10:08.466Z,102189.00
2023-02-05T06:12:35.521Z,102165.00
2023-02-05T06:15:02.691Z,102187.00
2023-02-05T06:17:29.826Z,102187.00
2023-02-05T06:19:56.858Z,102189.00
2023-02-05T06:22:23.912Z,102184.00
2023-02-05T06:24:51.060Z,102173.00
2023-02-05T06:27:18.468Z,102184.00
2023-02-05T06:29:45.481Z,102177.00
2023-02-05T06:32:12.508Z,102197.00
2023-02-05T06:34:39.659Z,102195.00
2023-02-05T06:37:07.537Z,102207.00
2023-02-05T06:39:34.483Z,102209.00
2023-02-05T06:42:01.581Z,102207.00
2023-02-05T06:44:28.585Z,102206.00
2023-02-05T06:46:55.600Z,102214.00
2023-02-05T06:49:22.969Z,102207.00
2023-02-05T06:51:50.111Z,102224.00
2023-02-05T06:54:17.402Z,102207.00
2023-02-05T06:56:44.726Z,102228.00
2023-02-05T06:59:11.790Z,102224.00
2023-02-05T07:01:38.843Z,102230.00
2023-02-05T07:04:06.178Z,102229.00
2023-02-05T07:06:33.291Z,102240.00
2023-02-05T07:09:00.482Z,102232.00
2023-02-05T07:11:27.630Z,102243.00
2023-02-05T07:13:54.904Z,102242.00
2023-02-05T07:16:22.262Z,102250.00
2023-02-05T07:18:49.440Z,102243.00
2023-02-05T07:21:17.623Z,102246.00
2023-02-05T07:23:45.427Z,102246.00
2023-02-05T07:26:15.966Z,102250.00
2023-02-05T07:28:44.756Z,102235.00
2023-02-05T07:31:18.721Z,102252.00
2023-02-05T07:33:47.397Z,102247.00
2023-02-05T07:36:18.380Z,102253.00
2023-02-05T07:38:47.469Z,102252.00
2023-02-05T07:41:16.622Z,102252.00
2023-02-05T07:43:44.027Z,102236.00
2023-02-05T07:46:14.275Z,102263.00
2023-02-05T07:48:41.317Z,102249.00
2023-02-05T07:51:08.499Z,102265.00
2023-02-05T07:53:35.596Z,102273.00
2023-02-05T07:56:04.944Z,102264.00
2023-02-05T07:58:32.236Z,102269.00
2023-02-05T08:01:04.349Z,102265.00
2023-02-05T08:03:32.017Z,102286.00
2023-02-05T08:05:59.363Z,102283.00
2023-02-05T08:08:26.379Z,102287.00
2023-02-05T08:11:03.600Z,102291.00
2023-02-05T08:13:31.519Z,102297.00
2023-02-05T08:15:58.782Z,102307.00
2023-02-05T08:18:26.177Z,102303.00
2023-02-05T08:20:54.392Z,102308.00
2023-02-05T08:23:22.301Z,102313.00
2023-02-05T08:25:53.965Z,102312.00
2023-02-05T08:28:21.404Z,102309.00
2023-02-05T08:30:48.563Z,102314.00
2023-02-05T08:33:16.129Z,102317.00
2023-02-05T08:35:43.293Z,102321.00
2023-02-05T08:38:10.432Z,102330.00
2023-02-05T08:40:37.520Z,102327.00
2023-02-05T08:43:04.719Z,102322.00
2023-02-05T08:45:32.028Z,102312.00
2023-02-05T08:47:59.145Z,102318.00
2023-02-05T08:50:26.295Z,102325.00
2023-02-05T08:52:53.675Z,102325.00
2023-02-05T08:55:20.833Z,102325.00
2023-02-05T08:57:48.099Z,102324.00
2023-02-05T09:00:15.842Z,102323.00
2023-02-05T09:02:43.767Z,102328.00
2023-02-05T09:05:11.578Z,102326.00
2023-02-05T09:07:40.087Z,102328.00
2023-02-05T09:10:12.966Z,102325.00
2023-02-05T09:12:41.039Z,102326.00
2023-02-05T09:15:09.676Z,102326.00
2023-02-05T09:17:36.937Z,102323.00
2023-02-05T09:20:04.919Z,102307.00
2023-02-05T09:22:31.948Z,102330.00
2023-02-05T09:24:59.421Z,102332.00
2023-02-05T09:27:26.521Z,102333.00
2023-02-05T09:29:53.443Z,102335.00
2023-02-05T09:32:20.532Z,102330.00
2023-02-05T09:34:49.412Z,102335.00
2023-02-05T09:37:17.572Z,102331.00
2023-02-05T09:40:19.070Z,102329.00
2023-02-05T09:56:18.429Z,102345.00
2023-02-05T09:58:50.328Z,102335.00
2023-02-05T10:01:45.102Z,102337.00
2023-02-05T10:04:12.434Z,102331.00
2023-02-05T10:07:05.100Z,102321.00
2023-02-05T10:09:54.279Z,102319.00
2023-02-05T10:12:50.247Z,102317.00
2023-02-05T10:15:36.448Z,102330.00
2023-02-05T10:18:23.782Z,102316.00
2023-02-05T10:21:46.554Z,102332.00
2023-02-05T10:24:50.548Z,102331.00
2023-02-05T10:27:23.783Z,102332.00
2023-02-05T10:30:20.619Z,102334.00
2023-02-05T10:33:12.102Z,102320.00
2023-02-05T10:36:01.261Z,102330.00
2023-02-05T10:38:34.759Z,102325.00
2023-02-05T10:41:16.713Z,102311.00
2023-02-05T10:44:14.789Z,102319.00
2023-02-05T10:46:46.061Z,102319.00
2023-02-05T10:49:19.001Z,102326.00
2023-02-05T10:51:46.309Z,102298.00
2023-02-05T10:54:43.438Z,102210.00
2023-02-05T10:57:17.508Z,102312.00
2023-02-05T11:00:02.118Z,102307.00
2023-02-05T11:02:39.258Z,102302.00
2023-02-05T11:05:21.458Z,102309.00
2023-02-05T11:07:54.361Z,102304.00
2023-02-05T11:10:34.108Z,102286.00
2023-02-05T11:13:20.197Z,102302.00
2023-02-05T11:16:01.471Z,102304.00
2023-02-05T11:18:35.994Z,102300.00
2023-02-05T11:21:06.304Z,102304.00
2023-02-05T11:23:39.688Z,102304.00
2023-02-05T11:26:21.164Z,102301.00
2023-02-05T11:28:48.094Z,102272.00
2023-02-05T11:31:34.944Z,102311.00
2023-02-05T11:34:17.323Z,102264.00
2023-02-05T11:36:57.725Z,102301.00
2023-02-05T11:39:38.635Z,102293.00
2023-02-05T11:42:27.585Z,102303.00
2023-02-05T11:45:01.871Z,102298.00
2023-02-05T11:47:32.345Z,102293.00
2023-02-05T11:50:00.342Z,102297.00
2023-02-05T11:52:36.861Z,102293.00
2023-02-05T11:55:06.217Z,102288.00
2023-02-05T11:57:39.267Z,102289.00
2023-02-05T12:00:09.171Z,102287.00
2023-02-05T12:02:38.596Z,102294.00
2023-02-05T12:05:20.995Z,102293.00
2023-02-05T12:08:27.832Z,102274.00
2023-02-05T12:11:28.518Z,102287.00
2023-02-05T12:14:26.495Z,102280.00
2023-02-05T12:17:05.082Z,102282.00
2023-02-05T12:19:55.912Z,102285.00
2023-02-05T12:22:56.986Z,102292.00
2023-02-05T12:25:51.550Z,102287.00
2023-02-05T12:28:41.541Z,102286.00
2023-02-05T12:31:54.067Z,102287.00
2023-02-05T12:35:11.926Z,102310.00
2023-02-05T12:37:59.870Z,102298.00
2023-02-05T12:41:22.403Z,102307.00
2023-02-05T12:43:53.590Z,102301.00
2023-02-05T12:46:48.985Z,102295.00
2023-02-05T12:49:33.685Z,102295.00
2023-02-05T12:52:55.868Z,102301.00
2023-02-05T12:56:11.222Z,102305.00
2023-02-05T12:58:46.310Z,102305.00
2023-02-05T13:01:23.977Z,102304.00
2023-02-05T13:03:57.032Z,102301.00
2023-02-05T13:06:27.562Z,102299.00
2023-02-05T13:09:25.842Z,102296.00
2023-02-05T13:12:06.497Z,102299.00
2023-02-05T13:15:08.472Z,102306.00
2023-02-05T13:17:42.146Z,102307.00
2023-02-05T13:20:51.390Z,102303.00
2023-02-05T13:23:38.183Z,102307.00
2023-02-05T13:26:25.461Z,102306.00
2023-02-05T13:29:07.890Z,102313.00
2023-02-05T13:31:48.646Z,102314.00
2023-02-05T13:34:17.731Z,102304.00
2023-02-05T13:37:00.562Z,102310.00
2023-02-05T13:39:48.191Z,102309.00
2023-02-05T13:42:44.406Z,102305.00
2023-02-05T13:45:38.513Z,102296.00
2023-02-05T13:49:10.281Z,102296.00
2023-02-05T13:51:50.987Z,102300.00
2023-02-05T13:54:17.955Z,102295.00
2023-02-05T13:57:04.708Z,102303.00
2023-02-05T13:59:51.398Z,102301.00
2023-02-05T14:02:41.116Z,102297.00
2023-02-05T14:05:09.849Z,102304.00
2023-02-05T14:07:49.010Z,102313.00
2023-02-05T14:10:33.516Z,102303.00
2023-02-05T14:13:21.484Z,102300.00
2023-02-05T14:15:49.869Z,102307.00
2023-02-05T14:18:43.172Z,102308.00
2023-02-05T14:21:31.830Z,102315.00
2023-02-05T14:24:03.014Z,102315.00
2023-02-05T14:26:52.827Z,102324.00
2023-02-05T14:29:49.737Z,102319.00
2023-02-05T14:32:28.593Z,102316.00
2023-02-05T14:35:25.503Z,102316.00
2023-02-05T14:38:00.334Z,102327.00
2023-02-05T14:40:37.126Z,102311.00
2023-02-05T14:43:27.293Z,102328.00
2023-02-05T14:45:55.094Z,102332.00
2023-02-05T14:48:34.161Z,102332.00
2023-02-05T14:51:07.979Z,102329.00
2023-02-05T14:53:38.024Z,102338.00
2023-02-05T14:56:05.900Z,102336.00
2023-02-05T14:58:44.463Z,102334.00
2023-02-05T15:01:46.240Z,102334.00
2023-02-05T15:04:31.932Z,102333.00
2023-02-05T15:07:09.996Z,102312.00
2023-02-05T15:09:51.579Z,102334.00
2023-02-05T15:12:37.245Z,102336.00
2023-02-05T15:15:33.820Z,102337.00
2023-02-05T15:18:24.272Z,102332.00
2023-02-05T15:20:59.067Z,102330.00
2023-02-05T15:23:40.423Z,102333.00
2023-02-05T15:26:33.887Z,102328.00
2023-02-05T15:29:24.420Z,102340.00
2023-02-05T15:32:36.061Z,102328.00
2023-02-05T15:35:21.230Z,102333.00
2023-02-05T15:38:09.986Z,102286.00
2023-02-05T15:40:43.973Z,102323.00
2023-02-05T15:43:20.496Z,102319.00
2023-02-05T15:45:49.737Z,102309.00
2023-02-05T15:48:25.877Z,102320.00
2023-02-05T15:51:15.554Z,102324.00
2023-02-05T15:53:51.093Z,102314.00
2023-02-05T15:56:29.563Z,102320.00
2023-02-05T15:59:25.006Z,102336.00
2023-02-05T16:02:16.378Z,102334.00
2023-02-05T16:04:43.301Z,102343.00
2023-02-05T16:07:33.895Z,102316.00
2023-02-05T16:10:16.008Z,102356.00
2023-02-05T16:13:28.563Z,102353.00
2023-02-05T16:16:03.559Z,102353.00
2023-02-05T16:18:55.507Z,102356.00
2023-02-05T16:21:48.194Z,102350.00
2023-02-05T16:24:33.032Z,102344.00
2023-02-05T16:27:37.891Z,102331.00
2023-02-05T16:30:28.634Z,102345.00
2023-02-05T16:32:58.962Z,102349.00
2023-02-05T16:35:46.241Z,102351.00
2023-02-05T16:38:21.209Z,102356.00
2023-02-05T16:40:53.506Z,102355.00
2023-02-05T16:43:37.284Z,102331.00
2023-02-05T16:46:07.453Z,102360.00
2023-02-05T16:48:48.110Z,102360.00
2023-02-05T16:51:50.372Z,102357.00
2023-02-05T16:54:20.561Z,102356.00
2023-02-05T16:56:59.271Z,102347.00
2023-02-05T16:59:34.022Z,102352.00
2023-02-05T17:02:03.177Z,102344.00
2023-02-05T17:04:39.090Z,102326.00
2023-02-05T17:07:18.717Z,102347.00
2023-02-05T17:09:45.739Z,102356.00
2023-02-05T17:12:21.762Z,102357.00
2023-02-05T17:15:03.235Z,102345.00
2023-02-05T17:17:32.590Z,102345.00
2023-02-05T17:20:16.116Z,102344.00
2023-02-05T17:23:01.335Z,102334.00
2023-02-05T17:25:51.378Z,102334.00
2023-02-05T17:28:27.897Z,102334.00
2023-02-05T17:31:00.445Z,102345.00
2023-02-05T17:33:28.708Z,102343.00
2023-02-05T17:35:55.771Z,102346.00
2023-02-05T17:38:25.915Z,102338.00
2023-02-05T17:41:15.719Z,102338.00
2023-02-05T17:43:42.808Z,102349.00
2023-02-05T17:46:15.039Z,102352.00
2023-02-05T17:48:44.753Z,102341.00
2023-02-05T17:51:21.038Z,102333.00
2023-02-05T17:53:49.628Z,102344.00
2023-02-05T17:56:19.291Z,102365.00
2023-02-05T17:58:46.420Z,102360.00
2023-02-05T18:01:13.701Z,102343.00
2023-02-05T18:03:40.772Z,102339.00
2023-02-05T18:06:10.054Z,102330.00
2023-02-05T18:08:37.327Z,102345.00
2023-02-05T18:11:04.784Z,102326.00
2023-02-05T18:13:31.729Z,102329.00
2023-02-05T18:16:04.737Z,102335.00
2023-02-05T18:18:36.419Z,102336.00
2023-02-05T18:21:03.966Z,102345.00
2023-02-05T18:23:31.546Z,102345.00
2023-02-05T18:26:08.357Z,102349.00
2023-02-05T18:28:35.594Z,102348.00
2023-02-05T18:31:09.496Z,102359.00
2023-02-05T18:33:37.340Z,102347.00
2023-02-05T18:36:11.483Z,102352.00
2023-02-05T18:38:41.079Z,102357.00
2023-02-05T18:41:10.269Z,102365.00
2023-02-05T18:43:38.436Z,102358.00
2023-02-05T18:46:14.263Z,102359.00
2023-02-05T18:48:41.581Z,102364.00
2023-02-05T18:51:15.669Z,102360.00
2023-02-05T18:53:44.581Z,102354.00
2023-02-05T18:56:19.094Z,102355.00
2023-02-05T18:59:02.854Z,102360.00
2023-02-05T19:01:33.636Z,102371.00
2023-02-05T19:04:12.588Z,102365.00
2023-02-05T19:06:49.513Z,102371.00
2023-02-05T19:09:17.529Z,102384.00
2023-02-05T19:11:45.847Z,102332.00
2023-02-05T19:14:17.307Z,102382.00
2023-02-05T19:16:47.739Z,102365.00
2023-02-05T19:19:20.017Z,102382.00
2023-02-05T19:21:50.907Z,102382.00
2023-02-05T19:24:18.669Z,102382.00
2023-02-05T19:26:45.898Z,102362.00
2023-02-05T19:29:22.007Z,102364.00
2023-02-05T19:31:57.735Z,102382.00
2023-02-05T19:34:38.399Z,102376.00
2023-02-05T19:37:12.189Z,102369.00
2023-02-05T19:39:39.889Z,102365.00
2023-02-05T19:42:07.116Z,102358.00
2023-02-05T19:44:34.250Z,102368.00
2023-02-05T19:47:01.130Z,102365.00
2023-02-05T19:49:28.238Z,102350.00
2023-02-05T19:51:56.508Z,102350.00
2023-02-05T19:54:23.416Z,102353.00
2023-02-05T19:56:51.042Z,102355.00
2023-02-05T19:59:18.741Z,102351.00
2023-02-05T20:01:46.559Z,102345.00
2023-02-05T20:04:22.349Z,102335.00
2023-02-05T20:06:52.066Z,102332.00
2023-02-05T20:09:19.385Z,102351.00
2023-02-05T20:11:49.718Z,102350.00
2023-02-05T20:14:17.403Z,102348.00
2023-02-05T20:16:47.589Z,102344.00
2023-02-05T20:19:17.451Z,102343.00
2023-02-05T20:21:46.671Z,102345.00
2023-02-05T20:24:16.185Z,102343.00
2023-02-05T20:26:44.631Z,102308.00
2023-02-05T20:29:30.685Z,102357.00
2023-02-05T20:31:59.039Z,102357.00
2023-02-05T20:34:30.550Z,102377.00
2023-02-05T20:37:06.943Z,102375.00
2023-02-05T20:39:35.274Z,102383.00
2023-02-05T20:42:03.231Z,102392.00
2023-02-05T20:44:36.089Z,102383.00
2023-02-05T20:47:05.009Z,102387.00
2023-02-05T20:49:34.951Z,102378.00
2023-02-05T20:52:01.957Z,102377.00
2023-02-05T20:54:29.232Z,102364.00
2023-02-05T20:56:59.343Z,102362.00
2023-02-05T20:59:28.673Z,102359.00
2023-02-05T21:01:56.257Z,102365.00
2023-02-05T21:04:23.443Z,102373.00
2023-02-05T21:06:50.688Z,102372.00
2023-02-05T21:09:17.831Z,102367.00
2023-02-05T21:11:45.178Z,102367.00
2023-02-05T21:14:12.359Z,102367.00
2023-02-05T21:16:40.469Z,102381.00
2023-02-05T21:19:09.042Z,102376.00
2023-02-05T21:21:37.336Z,102386.00
2023-02-05T21:24:15.538Z,102371.00
2023-02-05T21:26:46.839Z,102369.00
2023-02-05T21:29:18.482Z,102368.00
2023-02-05T21:31:53.067Z,102366.00
2023-02-05T21:34:24.965Z,102359.00
2023-02-05T21:36:52.737Z,102367.00
2023-02-05T21:39:22.531Z,102382.00
2023-02-05T21:41:53.994Z,102376.00
2023-02-05T21:44:21.448Z,102383.00
2023-02-05T21:46:48.387Z,102382.00
2023-02-05T21:49:15.549Z,102368.00
2023-02-05T21:51:42.540Z,102381.00
2023-02-05T21:54:11.052Z,102374.00
2023-02-05T21:56:41.822Z,102386.00
2023-02-05T21:59:11.862Z,102389.00
2023-02-05T22:01:39.676Z,102399.00
2023-02-05T22:04:14.485Z,102393.00
2023-02-05T22:06:42.300Z,102393.00
2023-02-05T22:09:13.094Z,102410.00
2023-02-05T22:11:40.587Z,102404.00
2023-02-05T22:14:08.410Z,102415.00
2023-02-05T22:16:36.572Z,102405.00
2023-02-05T22:19:05.348Z,102398.00
2023-02-05T22:21:40.606Z,102401.00
2023-02-05T22:24:11.446Z,102405.00
2023-02-05T22:26:39.260Z,102407.00
2023-02-05T22:29:10.540Z,102424.00
2023-02-05T22:31:37.436Z,102416.00
2023-02-05T22:34:05.460Z,102421.00
2023-02-05T22:36:34.725Z,102422.00
2023-02-05T22:39:02.430Z,102421.00
2023-02-05T22:41:36.374Z,102405.00
2023-02-05T22:44:07.435Z,102409.00
2023-02-05T22:46:40.302Z,102410.00
2023-02-05T22:49:07.161Z,102401.00
2023-02-05T22:51:38.528Z,102403.00
2023-02-05T22:54:07.254Z,102410.00
2023-02-05T22:56:36.943Z,102394.00
2023-02-05T22:59:03.943Z,102394.00
2023-02-05T23:01:36.134Z,102404.00
2023-02-05T23:04:08.601Z,102365.00
2023-02-05T23:06:40.158Z,102408.00
2023-02-05T23:09:14.827Z,102407.00
2023-02-05T23:11:42.463Z,102401.00
2023-02-05T23:14:12.842Z,102371.00
2023-02-05T23:16:43.107Z,102398.00
2023-02-05T23:19:18.720Z,102398.00
2023-02-05T23:21:47.158Z,102359.00
2023-02-05T23:24:14.911Z,102396.00
2023-02-05T23:26:46.710Z,102385.00
2023-02-05T23:29:16.117Z,102383.00
2023-02-05T23:31:43.381Z,102385.00
2023-02-05T23:34:11.093Z,102386.00
2023-02-05T23:36:38.316Z,102387.00
2023-02-05T23:39:05.692Z,102364.00
2023-02-05T23:41:35.984Z,102365.00
2023-02-05T23:44:12.122Z,102362.00
2023-02-05T23:46:41.145Z,102353.00
2023-02-05T23:49:09.226Z,102362.00
2023-02-05T23:51:36.438Z,102362.00
2023-02-05T23:54:04.562Z,102331.00
2023-02-05T23:56:32.398Z,102345.00
2023-02-05T23:59:00.009Z,102348.00
